Time;durP1;ratioP1;P1;durP2;ratioP2;P2;SDS_P1;SDS_P2;PMS_P1;PMS_P2;Temp;Humidity;BMP_temperature;BMP_pressure;BME280_temperature;BME280_humidity;BME280_pressure;Samples;Min_cycle;Max_cycle;Signal;HPM_P1;HPM_P2
2022/08/11 00:01:28;;;;;;;;;21.75;19.50;;;;;;;;5158048;28;8813;-72
2022/08/11 00:04:20;;;;;;;;;16.25;16.00;;;;;;;;5207948;28;8785;-72
2022/08/11 00:06:51;;;;;;;;;26.25;26.25;;;;;;;;5190278;28;8785;-72
2022/08/11 00:09:30;;;;;;;;;21.50;21.00;;;;;;;;5207984;28;8834;-72
2022/08/11 00:12:02;;;;;;;;;34.00;27.40;;;;;;;;5201805;28;8802;-72
2022/08/11 00:14:34;;;;;;;;;39.00;33.40;;;;;;;;5210628;28;8779;-72
2022/08/11 00:17:07;;;;;;;;;25.80;21.60;;;;;;;;5210281;28;8801;-73
2022/08/11 00:19:44;;;;;;;;;29.60;29.60;;;;;;;;5177754;28;8797;-73
2022/08/11 00:22:20;;;;;;;;;20.40;20.40;;;;;;;;5210627;28;8790;-74
2022/08/11 00:24:51;;;;;;;;;11.00;11.00;;;;;;;;5210788;28;8849;-74
2022/08/11 00:27:33;;;;;;;;;4.50;4.50;;;;;;;;5177520;28;8843;-73
2022/08/11 00:30:07;;;;;;;;;5.00;5.00;;;;;;;;5157576;28;8800;-73
2022/08/11 00:32:40;;;;;;;;;5.50;5.50;;;;;;;;5193738;28;8801;-73
2022/08/11 00:35:13;;;;;;;;;4.00;4.00;;;;;;;;5193879;28;8834;-72
2022/08/11 00:37:48;;;;;;;;;8.25;6.50;;;;;;;;5209217;28;9530;-71
2022/08/11 00:40:26;;;;;;;;;5.50;5.00;;;;;;;;5193997;28;8798;-73
2022/08/11 00:43:10;;;;;;;;;6.75;5.50;;;;;;;;5193766;28;8809;-72
2022/08/11 00:45:59;;;;;;;;;4.75;4.75;;;;;;;;5193400;28;8792;-73
2022/08/11 00:48:51;;;;;;;;;5.00;4.25;;;;;;;;5210170;28;8814;-73
2022/08/11 00:51:46;;;;;;;;;5.75;5.75;;;;;;;;5165868;28;8835;-73
2022/08/11 00:54:37;;;;;;;;;5.25;5.00;;;;;;;;5197262;28;8839;-73
2022/08/11 00:58:05;;;;;;;;;6.75;5.25;;;;;;;;5175524;28;8793;-74
2022/08/11 01:00:45;;;;;;;;;3.00;3.00;;;;;;;;5140279;28;8793;-75
2022/08/11 01:03:17;;;;;;;;;5.00;5.00;;;;;;;;5108866;28;9004;-74
2022/08/11 01:06:06;;;;;;;;;4.50;4.50;;;;;;;;5151049;28;8886;-73
2022/08/11 01:08:38;;;;;;;;;3.75;3.75;;;;;;;;5189067;28;8801;-73
2022/08/11 01:11:23;;;;;;;;;4.50;3.00;;;;;;;;5189427;28;8771;-74
2022/08/11 01:13:57;;;;;;;;;3.00;3.00;;;;;;;;5193395;28;8861;-73
2022/08/11 01:16:47;;;;;;;;;5.25;5.00;;;;;;;;5192669;28;8900;-73
2022/08/11 01:19:20;;;;;;;;;6.25;6.00;;;;;;;;5193062;28;8849;-74
2022/08/11 01:21:54;;;;;;;;;3.25;3.25;;;;;;;;5209320;28;8782;-74
2022/08/11 01:25:11;;;;;;;;;5.00;4.00;;;;;;;;5188844;28;8863;-75
2022/08/11 01:28:01;;;;;;;;;4.00;4.00;;;;;;;;5156679;28;8899;-74
2022/08/11 01:30:51;;;;;;;;;4.25;4.25;;;;;;;;5186790;28;8814;-74
2022/08/11 01:33:25;;;;;;;;;5.75;5.00;;;;;;;;5209582;28;8845;-74
2022/08/11 01:36:15;;;;;;;;;4.25;4.25;;;;;;;;5209043;28;8799;-74
2022/08/11 01:39:24;;;;;;;;;5.75;5.00;;;;;;;;5195123;28;8778;-74
2022/08/11 01:44:51;;;;;;;;;4.00;3.00;;;;;;;;5191974;28;8791;-74
2022/08/11 01:47:49;;;;;;;;;5.75;4.50;;;;;;;;5208646;28;8807;-74
2022/08/11 01:50:30;;;;;;;;;5.25;4.75;;;;;;;;5175599;28;8862;-75
2022/08/11 01:53:21;;;;;;;;;4.00;4.00;;;;;;;;5156039;28;8785;-75
2022/08/11 01:56:11;;;;;;;;;6.50;5.75;;;;;;;;5161080;28;8899;-75
2022/08/11 01:58:42;;;;;;;;;4.00;4.00;;;;;;;;5192915;28;9536;-75
2022/08/11 02:01:13;;;;;;;;;5.00;5.00;;;;;;;;5208623;28;8921;-75
2022/08/11 02:03:53;;;;;;;;;3.50;3.50;;;;;;;;5192394;28;8760;-75
2022/08/11 02:06:56;;;;;;;;;4.25;4.25;;;;;;;;5191970;28;8803;-75
2022/08/11 02:09:46;;;;;;;;;3.00;3.00;;;;;;;;5179029;28;8804;-75
2022/08/11 02:12:36;;;;;;;;;3.00;3.00;;;;;;;;5171759;28;8870;-73
2022/08/11 02:15:07;;;;;;;;;4.00;4.00;;;;;;;;5171847;28;8821;-75
2022/08/11 02:17:53;;;;;;;;;3.00;3.00;;;;;;;;5187682;28;8827;-75
2022/08/11 02:26:06;;;;;;;;;3.00;2.00;;;;;;;;5171812;28;8807;-72
2022/08/11 02:28:41;;;;;;;;;3.00;2.00;;;;;;;;5165123;28;9521;-71
2022/08/11 02:34:14;;;;;;;;;7.50;6.00;;;;;;;;5191739;28;8819;-73
2022/08/11 02:36:52;;;;;;;;;9.50;8.00;;;;;;;;5192117;28;8901;-74
2022/08/11 02:39:28;;;;;;;;;11.50;11.25;;;;;;;;5208269;28;8803;-73
2022/08/11 02:42:22;;;;;;;;;9.75;9.75;;;;;;;;5191696;28;8795;-74
2022/08/11 02:45:17;;;;;;;;;3.00;2.50;;;;;;;;5171542;28;8790;-73
2022/08/11 02:50:49;;;;;;;;;12.25;11.25;;;;;;;;5208066;28;8864;-73
2022/08/11 02:53:36;;;;;;;;;24.40;22.40;;;;;;;;5207686;28;8825;-74
2022/08/11 02:56:07;;;;;;;;;12.50;11.50;;;;;;;;5225199;28;8814;-73
2022/08/11 03:02:05;;;;;;;;;13.50;13.00;;;;;;;;5188516;28;9631;-74
2022/08/11 03:04:57;;;;;;;;;19.00;16.00;;;;;;;;5154834;28;8804;-74
2022/08/11 03:07:51;;;;;;;;;7.50;7.50;;;;;;;;5179370;28;8815;-73
2022/08/11 03:10:26;;;;;;;;;8.75;8.50;;;;;;;;5225607;28;8799;-72
2022/08/11 03:19:07;;;;;;;;;13.25;13.25;;;;;;;;5207688;28;8905;-72
2022/08/11 03:21:44;;;;;;;;;16.25;13.25;;;;;;;;5205237;28;9624;-72
2022/08/11 03:24:28;;;;;;;;;25.60;25.40;;;;;;;;5180035;28;8994;-71
2022/08/11 03:26:59;;;;;;;;;50.80;40.60;;;;;;;;5154749;28;8805;-71
2022/08/11 03:29:34;;;;;;;;;53.60;40.60;;;;;;;;5186739;28;8805;-72
2022/08/11 03:32:19;;;;;;;;;42.80;36.00;;;;;;;;5187249;28;8820;-72
2022/08/11 03:34:52;;;;;;;;;18.00;13.20;;;;;;;;5187182;28;8825;-72
2022/08/11 03:37:54;;;;;;;;;8.25;7.75;;;;;;;;5173296;28;8866;-72
2022/08/11 03:43:39;;;;;;;;;3.75;3.75;;;;;;;;5190662;28;8791;-73
2022/08/11 03:46:19;;;;;;;;;3.50;3.50;;;;;;;;5181770;28;9529;-72
2022/08/11 03:48:50;;;;;;;;;4.00;3.25;;;;;;;;5183467;28;8825;-72
2022/08/11 03:51:24;;;;;;;;;11.50;11.25;;;;;;;;5187272;28;8797;-73
2022/08/11 03:54:33;;;;;;;;;7.75;7.75;;;;;;;;5186708;28;8863;-72
2022/08/11 03:57:29;;;;;;;;;4.00;4.00;;;;;;;;5172995;28;9516;-72
2022/08/11 04:00:10;;;;;;;;;2.00;2.00;;;;;;;;5187613;28;8804;-72
2022/08/11 04:02:59;;;;;;;;;57.40;47.20;;;;;;;;5154749;28;8785;-72
2022/08/11 04:06:10;;;;;;;;;35.40;32.80;;;;;;;;5170837;28;8817;-72
2022/08/11 04:08:48;;;;;;;;;11.00;11.00;;;;;;;;5170183;28;8773;-72
2022/08/11 04:11:38;;;;;;;;;11.25;11.25;;;;;;;;5169146;28;9544;-73
2022/08/11 04:17:25;;;;;;;;;3.75;3.75;;;;;;;;5206624;28;8820;-73
2022/08/11 04:20:17;;;;;;;;;3.00;3.00;;;;;;;;5194060;28;8795;-74
2022/08/11 04:22:54;;;;;;;;;4.00;4.00;;;;;;;;5207703;28;8779;-74
2022/08/11 04:25:34;;;;;;;;;12.00;12.00;;;;;;;;5173669;28;8796;-74
2022/08/11 04:28:13;;;;;;;;;5.00;4.50;;;;;;;;5173265;28;8781;-73
2022/08/11 04:30:57;;;;;;;;;10.00;10.00;;;;;;;;5189571;28;9544;-72
2022/08/11 04:33:29;;;;;;;;;1.00;1.00;;;;;;;;5209452;28;8822;-72
2022/08/11 04:36:10;;;;;;;;;3.50;3.50;;;;;;;;5175143;28;8826;-72
2022/08/11 04:38:53;;;;;;;;;24.25;22.25;;;;;;;;5191692;28;8799;-72
2022/08/11 04:41:34;;;;;;;;;22.25;20.75;;;;;;;;5193439;28;8775;-72
2022/08/11 04:44:31;;;;;;;;;10.50;10.50;;;;;;;;5175927;28;8789;-71
2022/08/11 05:03:03;;;;;;;;;21.50;21.50;;;;;;;;5196374;28;8783;-72
2022/08/11 05:05:52;;;;;;;;;21.25;21.25;;;;;;;;5207672;28;8807;-71
2022/08/11 05:08:48;;;;;;;;;4.50;4.50;;;;;;;;5208430;28;8798;-72
2022/08/11 05:11:28;;;;;;;;;2.00;2.00;;;;;;;;5191721;28;8794;-73
2022/08/11 05:34:54;;;;;;;;;5.00;5.00;;;;;;;;5207515;28;8806;-72
2022/08/11 05:37:28;;;;;;;;;6.00;6.00;;;;;;;;5178383;28;9658;-72
2022/08/11 05:57:20;;;;;;;;;5.50;5.50;;;;;;;;5174942;28;8919;-73
2022/08/11 05:59:58;;;;;;;;;4.75;4.75;;;;;;;;5170281;28;8784;-72
2022/08/11 06:02:29;;;;;;;;;4.25;4.25;;;;;;;;5187115;28;8793;-72
2022/08/11 06:05:01;;;;;;;;;17.75;17.50;;;;;;;;5170147;28;8801;-73
2022/08/11 06:07:33;;;;;;;;;7.00;7.00;;;;;;;;5186394;28;9520;-72
2022/08/11 06:10:05;;;;;;;;;13.75;13.25;;;;;;;;5203741;28;8939;-72
2022/08/11 06:12:57;;;;;;;;;15.00;15.00;;;;;;;;5172139;28;8801;-73
2022/08/11 06:15:30;;;;;;;;;12.00;11.75;;;;;;;;5169947;28;9603;-73
2022/08/11 06:18:02;;;;;;;;;7.50;7.50;;;;;;;;5192639;28;8894;-73
2022/08/11 06:20:44;;;;;;;;;5.00;5.00;;;;;;;;5173777;28;8925;-72
2022/08/11 06:23:18;;;;;;;;;8.25;8.25;;;;;;;;5206982;28;9502;-71
2022/08/11 06:25:50;;;;;;;;;6.50;6.50;;;;;;;;5190271;28;8791;-76
2022/08/11 06:28:29;;;;;;;;;7.00;7.00;;;;;;;;5189993;28;9522;-71
2022/08/11 06:31:02;;;;;;;;;7.00;7.00;;;;;;;;5190368;28;8790;-72
2022/08/11 06:33:38;;;;;;;;;8.00;8.00;;;;;;;;5193277;28;8802;-72
2022/08/11 06:36:15;;;;;;;;;6.25;6.00;;;;;;;;5185438;28;8829;-72
2022/08/11 06:38:53;;;;;;;;;8.00;8.00;;;;;;;;5203471;28;9952;-72
2022/08/11 06:41:29;;;;;;;;;5.75;5.75;;;;;;;;5204730;28;10109;-72
2022/08/11 06:44:06;;;;;;;;;9.00;9.00;;;;;;;;5188060;28;8812;-72
2022/08/11 06:46:49;;;;;;;;;7.50;7.50;;;;;;;;5171494;28;9618;-72
2022/08/11 06:52:13;;;;;;;;;8.50;8.50;;;;;;;;5185615;28;9532;-72
2022/08/11 06:54:55;;;;;;;;;12.00;12.00;;;;;;;;5169019;28;8805;-72
2022/08/11 07:00:29;;;;;;;;;11.25;11.25;;;;;;;;5202983;28;8789;-72
2022/08/11 07:03:09;;;;;;;;;9.75;9.75;;;;;;;;5181818;28;8818;-72
2022/08/11 07:05:53;;;;;;;;;12.75;12.75;;;;;;;;5189367;28;8878;-72
2022/08/11 07:17:20;;;;;;;;;5.00;5.00;;;;;;;;5198498;28;8972;-72
2022/08/11 07:28:54;;;;;;;;;10.75;10.00;;;;;;;;5221589;28;8811;-72
2022/08/11 07:31:31;;;;;;;;;23.00;23.00;;;;;;;;5193066;28;9645;-71
2022/08/11 07:34:20;;;;;;;;;4.00;4.00;;;;;;;;5187963;28;8823;-71
2022/08/11 07:36:52;;;;;;;;;3.00;3.00;;;;;;;;5188301;28;8824;-71
2022/08/11 07:39:43;;;;;;;;;2.00;2.00;;;;;;;;5188089;28;8788;-71
2022/08/11 07:42:18;;;;;;;;;2.00;2.00;;;;;;;;5197122;28;8811;-72
2022/08/11 07:53:21;;;;;;;;;4.00;4.00;;;;;;;;5188851;28;8807;-70
2022/08/11 07:55:53;;;;;;;;;2.00;2.00;;;;;;;;5186306;28;8826;-71
2022/08/11 08:18:40;;;;;;;;;3.00;3.00;;;;;;;;5192553;28;8805;-72
2022/08/11 08:21:11;;;;;;;;;4.50;4.50;;;;;;;;5167379;28;8941;-72
2022/08/11 08:23:43;;;;;;;;;3.25;3.25;;;;;;;;5206892;28;8919;-72
2022/08/11 08:31:56;;;;;;;;;4.25;4.25;;;;;;;;5205169;28;8815;-72
2022/08/11 08:34:27;;;;;;;;;5.50;5.50;;;;;;;;5174400;28;8849;-72
2022/08/11 08:37:17;;;;;;;;;4.00;4.00;;;;;;;;5217670;28;9527;-72
2022/08/11 08:39:49;;;;;;;;;2.00;2.00;;;;;;;;5215939;28;9016;-72
2022/08/11 08:42:44;;;;;;;;;3.00;3.00;;;;;;;;5190800;28;8900;-73
2022/08/11 08:45:34;;;;;;;;;2.00;2.00;;;;;;;;5186061;28;8826;-72
2022/08/11 08:48:09;;;;;;;;;1.50;1.50;;;;;;;;5205536;28;8801;-73
2022/08/11 08:53:40;;;;;;;;;2.25;2.25;;;;;;;;5227743;28;8779;-71
2022/08/11 08:56:32;;;;;;;;;2.75;2.75;;;;;;;;5192230;28;9026;-71
2022/08/11 08:59:24;;;;;;;;;2.25;2.25;;;;;;;;5175156;28;8808;-72
2022/08/11 09:02:01;;;;;;;;;2.00;2.00;;;;;;;;5156853;28;8801;-72
2022/08/11 09:04:32;;;;;;;;;2.00;2.00;;;;;;;;5156733;28;9548;-73
2022/08/11 09:07:11;;;;;;;;;3.00;3.00;;;;;;;;5177158;28;8791;-72
2022/08/11 09:09:43;;;;;;;;;4.25;4.25;;;;;;;;5209992;28;8934;-71
2022/08/11 09:12:38;;;;;;;;;1.75;1.75;;;;;;;;5227225;28;8803;-73
2022/08/11 09:15:10;;;;;;;;;2.00;2.00;;;;;;;;5188740;28;8809;-71
2022/08/11 09:18:04;;;;;;;;;4.75;4.75;;;;;;;;5191559;28;8813;-71
2022/08/11 09:20:38;;;;;;;;;5.00;5.00;;;;;;;;5172807;28;8789;-72
2022/08/11 09:29:42;;;;;;;;;0.00;0.00;;;;;;;;5206402;28;8785;-71
2022/08/11 09:32:22;;;;;;;;;4.00;4.00;;;;;;;;5188548;28;8919;-71
2022/08/11 09:34:54;;;;;;;;;1.75;1.75;;;;;;;;5160357;28;8865;-73
2022/08/11 09:40:33;;;;;;;;;2.25;2.25;;;;;;;;5216373;28;8769;-71
2022/08/11 09:45:56;;;;;;;;;1.25;1.25;;;;;;;;5191631;28;8866;-73
2022/08/11 09:48:34;;;;;;;;;2.00;2.00;;;;;;;;5208540;28;9569;-72
2022/08/11 09:51:07;;;;;;;;;2.25;2.25;;;;;;;;5215388;28;8777;-72
2022/08/11 09:53:39;;;;;;;;;1.75;1.75;;;;;;;;5224807;28;8929;-72
2022/08/11 09:59:08;;;;;;;;;2.00;2.00;;;;;;;;5208968;28;8789;-73
2022/08/11 10:01:41;;;;;;;;;1.50;1.50;;;;;;;;5184064;28;8789;-72
2022/08/11 10:04:14;;;;;;;;;6.50;6.50;;;;;;;;5206778;28;8822;-72
2022/08/11 10:07:00;;;;;;;;;2.00;2.00;;;;;;;;5207908;28;8803;-73
2022/08/11 10:10:01;;;;;;;;;1.25;1.25;;;;;;;;5211177;28;8826;-72
2022/08/11 10:13:03;;;;;;;;;3.75;3.75;;;;;;;;5181075;28;8793;-71
2022/08/11 10:15:38;;;;;;;;;5.00;5.00;;;;;;;;5194375;28;8840;-72
2022/08/11 10:18:41;;;;;;;;;4.00;4.00;;;;;;;;5205776;28;8792;-73
2022/08/11 10:21:39;;;;;;;;;1.75;1.75;;;;;;;;5224379;28;8941;-72
2022/08/11 10:27:19;;;;;;;;;10.50;10.50;;;;;;;;5199523;28;8813;-72
2022/08/11 10:35:30;;;;;;;;;7.00;7.00;;;;;;;;5192161;28;8969;-71
2022/08/11 10:38:02;;;;;;;;;6.00;6.00;;;;;;;;5187343;28;8874;-71
2022/08/11 10:40:34;;;;;;;;;7.75;7.75;;;;;;;;5187524;28;8793;-71
2022/08/11 10:43:09;;;;;;;;;2.50;2.50;;;;;;;;5205025;28;8816;-72
2022/08/11 10:48:37;;;;;;;;;2.50;2.50;;;;;;;;5187485;28;8920;-72
2022/08/11 10:51:14;;;;;;;;;0.25;0.25;;;;;;;;5203366;28;8786;-71
2022/08/11 10:59:27;;;;;;;;;2.50;2.50;;;;;;;;5207921;28;8787;-82
2022/08/11 11:01:59;;;;;;;;;5.00;5.00;;;;;;;;5191417;28;8901;-86
2022/08/11 11:04:46;;;;;;;;;4.00;4.00;;;;;;;;5226958;28;8837;-84
2022/08/11 11:07:22;;;;;;;;;5.00;5.00;;;;;;;;5174650;28;8830;-81
2022/08/11 11:09:56;;;;;;;;;35.25;31.25;;;;;;;;5175324;28;8778;-84
2022/08/11 11:18:20;;;;;;;;;2.75;2.75;;;;;;;;5188532;28;8835;-83
2022/08/11 11:20:51;;;;;;;;;3.00;3.00;;;;;;;;5172021;28;8866;-84
2022/08/11 11:23:38;;;;;;;;;0.25;0.25;;;;;;;;5176427;28;8813;-82
2022/08/11 11:26:13;;;;;;;;;2.50;2.50;;;;;;;;5192152;28;8804;-86
2022/08/11 11:28:47;;;;;;;;;1.75;1.75;;;;;;;;5174659;28;8793;-84
2022/08/11 11:31:21;;;;;;;;;1.25;1.25;;;;;;;;5209702;28;8773;-82
2022/08/11 11:34:00;;;;;;;;;1.75;1.25;;;;;;;;5159126;28;8883;-82
2022/08/11 11:36:40;;;;;;;;;3.75;3.75;;;;;;;;5175359;28;8828;-81
2022/08/11 11:39:11;;;;;;;;;3.00;3.00;;;;;;;;5191271;28;8797;-84
2022/08/11 11:41:42;;;;;;;;;0.00;0.00;;;;;;;;5175563;28;8880;-85
2022/08/11 11:44:16;;;;;;;;;7.00;7.00;;;;;;;;5175224;28;8816;-84
2022/08/11 11:46:48;;;;;;;;;1.00;1.00;;;;;;;;5210800;28;8858;-81
2022/08/11 11:49:23;;;;;;;;;3.25;3.25;;;;;;;;5180411;28;8782;-80
2022/08/11 11:51:55;;;;;;;;;2.00;2.00;;;;;;;;5189649;28;8821;-85
2022/08/11 11:54:28;;;;;;;;;4.75;4.75;;;;;;;;5200451;28;8771;-85
2022/08/11 12:01:14;;;;;;;;;3.50;3.50;;;;;;;;5240105;28;8802;-81
2022/08/11 12:02:42;;;;;;;;;2.50;2.50;;;;;;;;5210080;28;8997;-86
2022/08/11 12:05:13;;;;;;;;;3.50;2.75;;;;;;;;5213494;28;8818;-81
2022/08/11 12:10:34;;;;;;;;;1.25;1.25;;;;;;;;5194696;28;8783;-88
2022/08/11 12:15:56;;;;;;;;;7.50;7.25;;;;;;;;5180705;28;11464;-79
2022/08/11 12:18:27;;;;;;;;;10.00;10.00;;;;;;;;5191428;28;8890;-80
2022/08/11 12:20:59;;;;;;;;;2.25;2.25;;;;;;;;5206392;28;8789;-78
2022/08/11 12:29:25;;;;;;;;;1.00;1.00;;;;;;;;5173129;28;8947;-80
2022/08/11 12:31:59;;;;;;;;;5.75;5.75;;;;;;;;5181822;28;8868;-84
2022/08/11 12:34:30;;;;;;;;;3.00;3.00;;;;;;;;5191083;28;9629;-86
2022/08/11 12:37:04;;;;;;;;;3.00;3.00;;;;;;;;5206729;28;8813;-84
2022/08/11 12:45:26;;;;;;;;;1.50;1.50;;;;;;;;5207578;28;8793;-84
2022/08/11 12:53:42;;;;;;;;;2.75;2.75;;;;;;;;5189693;28;8796;-82
2022/08/11 13:05:07;;;;;;;;;5.00;5.00;;;;;;;;5189573;28;8805;-87
2022/08/11 13:07:41;;;;;;;;;1.00;1.00;;;;;;;;5173498;28;8793;-82
2022/08/11 13:10:13;;;;;;;;;2.25;2.25;;;;;;;;5174185;28;8798;-85
2022/08/11 13:12:47;;;;;;;;;2.00;2.00;;;;;;;;5212778;28;8783;-80
2022/08/11 13:15:19;;;;;;;;;1.25;1.25;;;;;;;;5212428;28;8846;-83
2022/08/11 13:17:52;;;;;;;;;2.00;2.00;;;;;;;;5197423;28;8799;-84
2022/08/11 13:20:43;;;;;;;;;10.25;10.25;;;;;;;;5217250;28;8840;-84
2022/08/11 13:23:15;;;;;;;;;2.00;2.00;;;;;;;;5218919;28;8775;-81
2022/08/11 13:25:47;;;;;;;;;3.50;3.50;;;;;;;;5253872;28;8775;-84
2022/08/11 13:28:20;;;;;;;;;0.75;0.75;;;;;;;;5218276;28;8825;-87
2022/08/11 13:33:41;;;;;;;;;5.25;5.25;;;;;;;;5202697;28;8953;-83
2022/08/11 13:36:16;;;;;;;;;2.75;2.75;;;;;;;;5193118;28;8821;-85
2022/08/11 13:38:48;;;;;;;;;1.50;1.50;;;;;;;;5175360;28;8876;-86
2022/08/11 13:41:38;;;;;;;;;14.00;14.00;;;;;;;;5189588;28;8788;-81
2022/08/11 13:44:11;;;;;;;;;12.50;12.50;;;;;;;;5188611;28;8896;-81
2022/08/11 13:46:42;;;;;;;;;1.25;1.25;;;;;;;;5190320;28;8911;-81
2022/08/11 13:49:15;;;;;;;;;3.75;3.75;;;;;;;;5226748;28;8783;-82
2022/08/11 13:51:49;;;;;;;;;6.25;6.25;;;;;;;;5208371;28;8783;-82
2022/08/11 13:54:22;;;;;;;;;2.75;2.75;;;;;;;;5192529;28;8774;-81
2022/08/11 13:56:57;;;;;;;;;2.00;2.00;;;;;;;;5192289;28;8923;-84
2022/08/11 13:59:32;;;;;;;;;2.00;2.00;;;;;;;;5192524;28;8799;-82
2022/08/11 14:02:07;;;;;;;;;1.00;1.00;;;;;;;;5176987;28;8801;-83
2022/08/11 14:04:53;;;;;;;;;1.75;1.75;;;;;;;;5226721;28;8779;-83
2022/08/11 14:07:31;;;;;;;;;3.00;3.00;;;;;;;;5189592;28;8826;-81
2022/08/11 14:10:04;;;;;;;;;1.25;1.25;;;;;;;;5194044;28;8814;-88
2022/08/11 14:15:33;;;;;;;;;2.25;2.25;;;;;;;;5225127;28;8949;-86
2022/08/11 14:18:15;;;;;;;;;2.00;2.00;;;;;;;;5174045;28;8833;-86
2022/08/11 14:23:41;;;;;;;;;1.25;1.25;;;;;;;;5224855;28;8795;-84
2022/08/11 14:26:25;;;;;;;;;1.00;1.00;;;;;;;;5169248;28;8866;-85
2022/08/11 14:29:07;;;;;;;;;2.75;2.75;;;;;;;;5172991;28;9594;-86
2022/08/11 14:31:39;;;;;;;;;4.75;4.75;;;;;;;;5205430;28;8781;-87
2022/08/11 14:34:13;;;;;;;;;2.00;2.00;;;;;;;;5170237;28;8808;-84
2022/08/11 14:37:04;;;;;;;;;6.25;6.25;;;;;;;;5188618;28;8836;-83
2022/08/11 14:39:40;;;;;;;;;1.50;1.50;;;;;;;;5205153;28;8835;-85
2022/08/11 14:48:04;;;;;;;;;1.00;1.00;;;;;;;;5225116;28;9571;-82
2022/08/11 14:50:39;;;;;;;;;2.50;2.50;;;;;;;;5192044;28;8810;-81
2022/08/11 14:53:11;;;;;;;;;2.00;2.00;;;;;;;;5208805;28;8814;-84
2022/08/11 14:58:33;;;;;;;;;6.00;6.00;;;;;;;;5202377;28;8783;-80
2022/08/11 15:03:05;;;;;;;;;4.25;4.25;;;;;;;;5205296;28;8853;-80
2022/08/11 15:03:58;;;;;;;;;3.75;3.75;;;;;;;;5214036;28;8778;-80
2022/08/11 15:06:29;;;;;;;;;6.75;6.75;;;;;;;;5188823;28;8812;-79
2022/08/11 15:09:02;;;;;;;;;6.50;6.50;;;;;;;;5185839;28;8789;-79
2022/08/11 15:12:16;;;;;;;;;2.00;2.00;;;;;;;;5185039;28;9476;-80
2022/08/11 15:17:38;;;;;;;;;7.50;7.50;;;;;;;;5185321;28;8837;-82
2022/08/11 15:25:56;;;;;;;;;5.50;5.50;;;;;;;;5206022;28;8807;-79
2022/08/11 15:46:01;;;;;;;;;12.50;12.50;;;;;;;;5186788;28;8797;-87
2022/08/11 15:48:32;;;;;;;;;4.75;4.75;;;;;;;;5186441;28;9508;-87
2022/08/11 15:51:11;;;;;;;;;5.00;5.00;;;;;;;;5168973;28;8800;-83
2022/08/11 15:53:48;;;;;;;;;3.75;3.75;;;;;;;;5192838;28;8794;-88
2022/08/11 15:56:35;;;;;;;;;5.50;5.50;;;;;;;;5230845;28;8830;-85
2022/08/11 16:04:55;;;;;;;;;5.50;5.50;;;;;;;;5191528;28;8933;-81
2022/08/11 16:07:28;;;;;;;;;6.00;6.00;;;;;;;;5206070;28;8937;-78
2022/08/11 16:10:09;;;;;;;;;9.25;9.25;;;;;;;;5192673;28;8783;-78
2022/08/11 16:16:13;;;;;;;;;23.75;23.75;;;;;;;;5172578;28;9617;-78
2022/08/11 16:18:53;;;;;;;;;18.50;18.50;;;;;;;;5174382;28;8967;-78
2022/08/11 16:21:50;;;;;;;;;10.25;10.25;;;;;;;;5211701;28;8838;-77
2022/08/11 16:24:22;;;;;;;;;13.00;13.00;;;;;;;;5192644;28;8816;-79
2022/08/11 16:26:56;;;;;;;;;22.75;22.75;;;;;;;;5192838;28;9541;-79
2022/08/11 16:29:30;;;;;;;;;25.75;25.50;;;;;;;;5191136;28;8820;-80
2022/08/11 16:32:16;;;;;;;;;25.25;22.25;;;;;;;;5182802;28;8828;-81
2022/08/11 16:40:38;;;;;;;;;28.00;28.00;;;;;;;;5210955;28;9548;-78
2022/08/11 16:49:21;;;;;;;;;9.00;8.00;;;;;;;;5164209;28;9525;-88
2022/08/11 16:51:52;;;;;;;;;9.00;9.00;;;;;;;;5165273;28;9566;-89
2022/08/11 16:54:23;;;;;;;;;12.50;12.50;;;;;;;;5177672;28;8819;-86
2022/08/11 16:56:55;;;;;;;;;8.75;8.25;;;;;;;;5190038;28;9587;-85
2022/08/11 16:59:30;;;;;;;;;7.25;7.25;;;;;;;;5190832;28;8797;-81
2022/08/11 17:02:06;;;;;;;;;6.50;6.50;;;;;;;;5159673;28;8812;-80
2022/08/11 17:14:11;;;;;;;;;8.25;8.25;;;;;;;;5188924;28;8820;-84
2022/08/11 17:16:44;;;;;;;;;8.25;8.25;;;;;;;;5164933;28;8867;-87
2022/08/11 17:19:36;;;;;;;;;8.75;8.75;;;;;;;;5205760;28;8793;-83
2022/08/11 17:24:58;;;;;;;;;5.00;5.00;;;;;;;;5204903;28;8797;-86
2022/08/11 17:27:30;;;;;;;;;4.25;4.25;;;;;;;;5171479;28;8808;-78
2022/08/11 17:30:04;;;;;;;;;7.00;7.00;;;;;;;;5154949;28;8793;-81
2022/08/11 17:35:37;;;;;;;;;6.00;6.00;;;;;;;;5204548;28;8882;-81
2022/08/11 17:38:11;;;;;;;;;7.75;7.00;;;;;;;;5171046;28;8797;-81
2022/08/11 17:48:24;;;;;;;;;7.00;7.00;;;;;;;;5186825;28;9527;-79
2022/08/11 17:49:19;;;;;;;;;5.25;5.25;;;;;;;;5207978;28;8791;-83
2022/08/11 18:00:19;;;;;;;;;8.75;8.75;;;;;;;;5224897;28;8798;-82
2022/08/11 18:05:42;;;;;;;;;9.75;8.75;;;;;;;;5203002;28;8900;-80
